createdAt,value
2018-05-12T00:00:39.370Z,16.65
2018-05-12T00:01:39.892Z,16.58
2018-05-12T00:02:39.622Z,16.65
2018-05-12T00:03:39.864Z,16.6
2018-05-12T00:04:39.321Z,16.59
2018-05-12T00:05:39.852Z,16.6
2018-05-12T00:06:39.568Z,16.59
2018-05-12T00:07:39.565Z,16.58
2018-05-12T00:08:39.761Z,16.59
2018-05-12T00:09:39.805Z,16.6
2018-05-12T00:10:39.519Z,16.63
2018-05-12T00:11:39.776Z,16.62
2018-05-12T00:12:39.498Z,16.62
2018-05-12T00:13:39.517Z,16.58
2018-05-12T00:14:39.473Z,16.65
2018-05-12T00:15:39.463Z,16.6
2018-05-12T00:16:39.465Z,16.56
2018-05-12T00:17:39.704Z,16.6
2018-05-12T00:18:39.694Z,16.62
2018-05-12T00:19:39.418Z,16.6
2018-05-12T00:20:39.409Z,16.58
2018-05-12T00:21:39.391Z,16.53
2018-05-12T00:22:39.384Z,16.58
2018-05-12T00:23:39.114Z,16.6
2018-05-12T00:24:39.625Z,16.59
2018-05-12T00:25:39.623Z,16.62
2018-05-12T00:26:39.341Z,16.58
2018-05-12T00:27:39.325Z,16.58
2018-05-12T00:28:39.049Z,16.56
2018-05-12T00:29:39.309Z,16.5
2018-05-12T00:30:39.288Z,16.5
2018-05-12T00:31:39.379Z,16.55
2018-05-12T00:32:39.268Z,16.55
2018-05-12T00:33:39.514Z,16.5
2018-05-12T00:34:38.988Z,16.53
2018-05-12T00:35:39.512Z,16.53
2018-05-12T00:36:39.220Z,16.52
2018-05-12T00:37:39.206Z,16.53
2018-05-12T00:38:38.929Z,16.56
2018-05-12T00:39:39.183Z,16.5
2018-05-12T00:40:39.176Z,16.49
2018-05-12T00:41:39.166Z,16.52
2018-05-12T00:42:38.883Z,16.45
2018-05-12T00:43:39.136Z,16.44
2018-05-12T00:44:39.129Z,16.48
2018-05-12T00:45:39.121Z,16.53
2018-05-12T00:46:39.103Z,16.45
2018-05-12T00:47:39.359Z,16.48
2018-05-12T00:48:38.825Z,16.49
2018-05-12T00:49:39.067Z,16.48
2018-05-12T00:50:39.056Z,16.33
2018-05-12T00:51:38.778Z,16.48
2018-05-12T00:52:39.302Z,16.42
2018-05-12T00:53:39.017Z,16.4
2018-05-12T00:54:38.744Z,16.41
2018-05-12T00:55:39.267Z,16.4
2018-05-12T00:56:38.983Z,16.34
2018-05-12T00:57:38.984Z,16.3
2018-05-12T00:58:39.224Z,16.26
2018-05-12T00:59:39.231Z,16.26
2018-05-12T01:00:39.211Z,16.31
2018-05-12T01:01:38.926Z,16.26
2018-05-12T01:02:38.917Z,16.34
2018-05-12T01:03:38.910Z,16.37
2018-05-12T01:04:38.629Z,16.25
2018-05-12T01:05:38.880Z,16.3
2018-05-12T01:06:39.136Z,16.37
2018-05-12T01:07:38.864Z,16.34
2018-05-12T01:08:38.850Z,16.4
2018-05-12T01:09:39.108Z,16.38
2018-05-12T01:10:38.826Z,16.35
2018-05-12T01:11:39.078Z,16.4
2018-05-12T01:12:39.076Z,16.41
2018-05-12T01:13:39.208Z,16.42
2018-05-12T01:14:38.776Z,16.44
2018-05-12T01:15:38.764Z,16.41
2018-05-12T01:16:38.492Z,16.38
2018-05-12T01:17:38.750Z,16.45
2018-05-12T01:18:38.998Z,16.49
2018-05-12T01:19:38.718Z,16.41
2018-05-12T01:20:38.704Z,16.41
2018-05-12T01:21:38.703Z,16.45
2018-05-12T01:22:38.688Z,16.49
2018-05-12T01:23:38.942Z,16.48
2018-05-12T01:24:38.661Z,16.34
2018-05-12T01:25:38.652Z,16.4
2018-05-12T01:26:38.900Z,16.4
2018-05-12T01:27:38.905Z,16.37
2018-05-12T01:28:38.356Z,16.4
2018-05-12T01:29:38.340Z,16.4
2018-05-12T01:30:38.595Z,16.41
2018-05-12T01:31:38.587Z,16.33
2018-05-12T01:32:38.836Z,16.31
2018-05-12T01:33:38.560Z,16.3
2018-05-12T01:34:38.555Z,16.3
2018-05-12T01:35:38.799Z,16.25
2018-05-12T01:36:38.261Z,16.27
2018-05-12T01:37:38.786Z,16.27
2018-05-12T01:38:38.238Z,16.23
2018-05-12T01:39:38.764Z,16.3
2018-05-12T01:40:38.519Z,16.2
2018-05-12T01:41:38.729Z,16.18
2018-05-12T01:42:38.187Z,16.14
2018-05-12T01:43:38.717Z,16.2
2018-05-12T01:44:38.690Z,16.2
2018-05-12T01:45:38.149Z,16.07
2018-05-12T01:46:38.140Z,16.14
2018-05-12T01:47:38.652Z,16.12
2018-05-12T01:48:38.118Z,16.14
2018-05-12T01:49:38.642Z,16.14
2018-05-12T01:50:38.356Z,16.15
2018-05-12T01:51:38.613Z,16.09
2018-05-12T01:52:38.606Z,16.09
2018-05-12T01:53:38.057Z,16.12
2018-05-12T01:54:38.309Z,16.14
2018-05-12T01:55:38.306Z,16.04
2018-05-12T01:56:38.299Z,16.11
2018-05-12T01:57:38.280Z,16.06
2018-05-12T01:58:38.265Z,16.03
2018-05-12T01:59:38.515Z,16.01
2018-05-12T02:00:38.523Z,16.06
2018-05-12T02:01:38.495Z,15.94
2018-05-12T02:02:38.479Z,15.96
2018-05-12T02:03:38.487Z,15.92
2018-05-12T02:04:38.191Z,15.86
2018-05-12T02:05:38.182Z,15.84
2018-05-12T02:06:38.173Z,15.89
2018-05-12T02:07:38.419Z,15.89
2018-05-12T02:08:38.349Z,15.85
2018-05-12T02:09:38.394Z,15.76
2018-05-12T02:10:38.385Z,15.82
2018-05-12T02:11:38.382Z,15.76
2018-05-12T02:12:38.360Z,15.94
2018-05-12T02:13:38.087Z,15.78
2018-05-12T02:14:38.073Z,15.88
2018-05-12T02:15:38.059Z,15.84
2018-05-12T02:16:38.314Z,15.75
2018-05-12T02:17:38.036Z,15.85
2018-05-12T02:18:38.028Z,15.75
2018-05-12T02:19:38.288Z,15.79
2018-05-12T02:20:38.267Z,15.76
2018-05-12T02:21:37.724Z,15.74
2018-05-12T02:22:38.243Z,15.79
2018-05-12T02:23:37.964Z,15.68
2018-05-12T02:24:37.686Z,15.67
2018-05-12T02:25:37.940Z,15.7
2018-05-12T02:26:38.198Z,15.72
2018-05-12T02:27:38.195Z,15.74
2018-05-12T02:28:37.900Z,15.67
2018-05-12T02:29:38.153Z,15.72
2018-05-12T02:30:37.886Z,15.68
2018-05-12T02:31:38.142Z,15.59
2018-05-12T02:32:37.869Z,15.66
2018-05-12T02:33:37.842Z,15.52
2018-05-12T02:34:37.570Z,15.54
2018-05-12T02:35:38.101Z,15.48
2018-05-12T02:36:37.541Z,15.48
2018-05-12T02:37:37.532Z,15.45
2018-05-12T02:38:37.782Z,15.43
2018-05-12T02:39:38.045Z,15.33
2018-05-12T02:40:37.760Z,15.31
2018-05-12T02:41:37.485Z,15.28
2018-05-12T02:42:37.741Z,15.21
2018-05-12T02:43:37.730Z,15.12
2018-05-12T02:44:37.797Z,14.98
2018-05-12T02:45:37.693Z,15.05
2018-05-12T02:46:37.686Z,14.95
2018-05-12T02:47:37.946Z,14.84
2018-05-12T02:48:37.661Z,14.75
2018-05-12T02:49:37.913Z,14.68
2018-05-12T02:50:37.640Z,14.68
2018-05-12T02:51:37.893Z,14.56
2018-05-12T02:52:37.616Z,14.53
2018-05-12T02:53:37.605Z,14.5
2018-05-12T02:54:37.594Z,14.49
2018-05-12T02:55:37.310Z,14.49
2018-05-12T02:56:37.560Z,14.47
2018-05-12T02:57:37.547Z,14.46
2018-05-12T02:58:37.809Z,14.44
2018-05-12T02:59:37.253Z,14.37
2018-05-12T03:00:37.503Z,14.37
2018-05-12T03:01:37.767Z,14.34
2018-05-12T03:02:37.479Z,14.28
2018-05-12T03:03:37.738Z,14.25
2018-05-12T03:04:37.457Z,14.19
2018-05-12T03:05:37.444Z,14.31
2018-05-12T03:06:37.435Z,14.2
2018-05-12T03:07:37.423Z,14.14
2018-05-12T03:08:37.407Z,14.07
2018-05-12T03:09:37.393Z,14.1
2018-05-12T03:10:37.378Z,14.09
2018-05-12T03:11:37.368Z,13.94
2018-05-12T03:12:37.629Z,13.95
2018-05-12T03:13:37.340Z,13.95
2018-05-12T03:14:37.338Z,13.87
2018-05-12T03:15:37.583Z,13.87
2018-05-12T03:16:37.297Z,13.8
2018-05-12T03:17:37.021Z,13.91
2018-05-12T03:18:37.271Z,13.79
2018-05-12T03:19:37.523Z,13.87
2018-05-12T03:20:37.501Z,13.77
2018-05-12T03:21:37.232Z,13.83
2018-05-12T03:22:37.214Z,13.79
2018-05-12T03:23:37.209Z,13.79
2018-05-12T03:24:37.457Z,13.79
2018-05-12T03:25:37.437Z,13.83
2018-05-12T03:26:37.426Z,13.77
2018-05-12T03:27:36.886Z,13.81
2018-05-12T03:28:37.133Z,13.87
2018-05-12T03:29:36.858Z,13.79
2018-05-12T03:30:37.381Z,13.81
2018-05-12T03:31:37.101Z,13.79
2018-05-12T03:32:37.089Z,13.83
2018-05-12T03:33:36.808Z,13.81
2018-05-12T03:34:36.792Z,13.79
2018-05-12T03:35:37.049Z,13.83
2018-05-12T03:36:37.293Z,13.84
2018-05-12T03:37:37.279Z,13.77
2018-05-12T03:38:37.277Z,13.76
2018-05-12T03:39:36.991Z,13.73
2018-05-12T03:40:37.237Z,13.69
2018-05-12T03:41:37.225Z,13.65
2018-05-12T03:42:36.684Z,13.71
2018-05-12T03:43:36.944Z,13.73
2018-05-12T03:44:36.655Z,13.61
2018-05-12T03:45:36.644Z,13.7
2018-05-12T03:46:37.169Z,13.7
2018-05-12T03:47:36.612Z,13.59
2018-05-12T03:48:37.140Z,13.59
2018-05-12T03:49:37.115Z,13.62
2018-05-12T03:50:37.102Z,13.59
2018-05-12T03:51:36.558Z,13.59
2018-05-12T03:52:37.089Z,13.55
2018-05-12T03:53:36.538Z,13.55
2018-05-12T03:54:36.519Z,13.56
2018-05-12T03:55:37.051Z,13.55
2018-05-12T03:56:36.762Z,13.58
2018-05-12T03:57:37.015Z,13.55
2018-05-12T03:58:36.732Z,13.44
2018-05-12T03:59:36.979Z,13.54
2018-05-12T04:00:36.700Z,13.52
2018-05-12T04:01:36.691Z,13.44
2018-05-12T04:02:36.408Z,13.49
2018-05-12T04:03:36.659Z,13.41
2018-05-12T04:04:36.909Z,13.32
2018-05-12T04:05:36.370Z,13.41
2018-05-12T04:06:36.884Z,13.29
2018-05-12T04:07:36.338Z,13.4
2018-05-12T04:08:37.198Z,13.38
2018-05-12T04:09:36.316Z,13.33
2018-05-12T04:10:36.563Z,13.37
2018-05-12T04:11:36.553Z,13.36
2018-05-12T04:12:36.802Z,13.33
2018-05-12T04:13:36.784Z,13.25
2018-05-12T04:14:36.507Z,13.3
2018-05-12T04:15:36.498Z,13.15
2018-05-12T04:16:36.478Z,13.29
2018-05-12T04:17:36.746Z,13.22
2018-05-12T04:18:36.451Z,13.24
2018-05-12T04:19:36.175Z,13.32
2018-05-12T04:20:36.694Z,13.32
2018-05-12T04:21:36.677Z,13.32
2018-05-12T04:22:36.398Z,13.22
2018-05-12T04:23:36.120Z,13.25
2018-05-12T04:24:36.628Z,13.21
2018-05-12T04:25:36.385Z,13.2
2018-05-12T04:26:36.155Z,13.21
2018-05-12T04:27:36.329Z,13.29
2018-05-12T04:28:36.313Z,13.18
2018-05-12T04:29:36.308Z,13.27
2018-05-12T04:30:36.548Z,13.33
2018-05-12T04:31:36.537Z,13.27
2018-05-12T04:32:36.523Z,13.3
2018-05-12T04:33:36.243Z,13.27
2018-05-12T04:34:36.504Z,13.22
2018-05-12T04:35:36.488Z,13.22
2018-05-12T04:36:36.204Z,13.24
2018-05-12T04:37:36.191Z,13.36
2018-05-12T04:38:36.183Z,13.38
2018-05-12T04:39:35.902Z,13.43
2018-05-12T04:40:35.883Z,13.32
2018-05-12T04:41:36.404Z,13.4
2018-05-12T04:42:36.126Z,13.44
2018-05-12T04:43:36.103Z,13.49
2018-05-12T04:44:36.101Z,13.51
2018-05-12T04:45:36.348Z,13.41
2018-05-12T04:46:36.332Z,13.56
2018-05-12T04:47:36.317Z,13.56
2018-05-12T04:48:36.303Z,13.58
2018-05-12T04:49:36.058Z,13.55
2018-05-12T04:50:35.752Z,13.59
2018-05-12T04:51:35.999Z,13.55
2018-05-12T04:52:36.255Z,13.62
2018-05-12T04:53:36.231Z,13.61
2018-05-12T04:54:36.221Z,13.63
2018-05-12T04:55:36.206Z,13.67
2018-05-12T04:56:35.935Z,13.73
2018-05-12T04:57:35.919Z,13.63
2018-05-12T04:58:35.638Z,13.73
2018-05-12T04:59:35.889Z,13.77
2018-05-12T05:00:36.149Z,13.84
2018-05-12T05:01:35.862Z,13.8
2018-05-12T05:02:35.579Z,13.79
2018-05-12T05:03:35.833Z,13.79
2018-05-12T05:04:35.829Z,13.81
2018-05-12T05:05:36.075Z,13.87
2018-05-12T05:06:35.796Z,13.95
2018-05-12T05:07:35.514Z,13.95
2018-05-12T05:08:36.031Z,14.01
2018-05-12T05:09:35.755Z,13.94
2018-05-12T05:10:35.740Z,14.04
2018-05-12T05:11:35.727Z,14.07
2018-05-12T05:12:35.983Z,14.09
2018-05-12T05:13:35.699Z,14.1
2018-05-12T05:14:35.952Z,14.16
2018-05-12T05:15:35.678Z,14.17
2018-05-12T05:16:35.671Z,14.14
2018-05-12T05:17:35.649Z,14.19
2018-05-12T05:18:35.365Z,14.27
2018-05-12T05:19:35.897Z,14.29
2018-05-12T05:20:35.612Z,14.29
2018-05-12T05:21:35.859Z,14.34
2018-05-12T05:22:35.581Z,14.35
2018-05-12T05:23:35.568Z,14.42
2018-05-12T05:24:35.285Z,14.39
2018-05-12T05:25:35.545Z,14.46
2018-05-12T05:26:35.265Z,14.47
2018-05-12T05:27:35.786Z,14.47
2018-05-12T05:28:35.501Z,14.49
2018-05-12T05:29:35.752Z,14.52
2018-05-12T05:30:35.474Z,14.56
2018-05-12T05:31:35.460Z,14.54
2018-05-12T05:32:35.449Z,14.52
2018-05-12T05:33:35.434Z,14.68
2018-05-12T05:34:35.424Z,14.72
2018-05-12T05:35:35.672Z,14.71
2018-05-12T05:36:35.671Z,14.71
2018-05-12T05:37:35.120Z,14.78
2018-05-12T05:38:35.638Z,14.83
2018-05-12T05:39:35.358Z,14.91
2018-05-12T05:40:35.342Z,14.91
2018-05-12T05:41:35.487Z,14.95
2018-05-12T05:42:35.320Z,15.03
2018-05-12T05:43:35.339Z,14.99
2018-05-12T05:44:35.557Z,14.98
2018-05-12T05:45:35.555Z,15.03
2018-05-12T05:46:35.268Z,15.09
2018-05-12T05:47:34.997Z,15.05
2018-05-12T05:48:35.508Z,15.13
2018-05-12T05:49:35.229Z,15.24
2018-05-12T05:50:35.226Z,15.27
2018-05-12T05:51:35.475Z,15.28
2018-05-12T05:52:35.456Z,15.3
2018-05-12T05:53:34.915Z,15.35
2018-05-12T05:54:34.909Z,15.38
2018-05-12T05:55:35.150Z,15.36
2018-05-12T05:56:35.142Z,15.43
2018-05-12T05:57:35.132Z,15.46
2018-05-12T05:58:35.255Z,15.45
2018-05-12T05:59:35.107Z,15.54
2018-05-12T06:00:35.355Z,15.51
2018-05-12T06:01:35.079Z,15.56
2018-05-12T06:02:35.068Z,15.6
2018-05-12T06:03:34.792Z,15.66
2018-05-12T06:04:34.776Z,15.67
2018-05-12T06:05:34.764Z,15.66
2018-05-12T06:06:35.019Z,15.75
2018-05-12T06:07:35.265Z,15.82
2018-05-12T06:08:35.456Z,15.81
2018-05-12T06:09:34.981Z,15.86
2018-05-12T06:10:34.973Z,15.89
2018-05-12T06:11:35.223Z,15.94
2018-05-12T06:12:35.210Z,15.99
2018-05-12T06:13:34.669Z,16.04
2018-05-12T06:14:35.183Z,16.04
2018-05-12T06:15:34.908Z,16.18
2018-05-12T06:16:34.892Z,16.18
2018-05-12T06:17:35.143Z,16.18
2018-05-12T06:18:35.131Z,16.33
2018-05-12T06:19:34.855Z,16.3
2018-05-12T06:20:34.588Z,16.26
2018-05-12T06:21:34.836Z,16.37
2018-05-12T06:22:34.826Z,16.34
2018-05-12T06:23:35.079Z,16.37
2018-05-12T06:24:34.804Z,16.42
2018-05-12T06:25:35.058Z,16.59
2018-05-12T06:26:34.525Z,16.5
2018-05-12T06:27:35.051Z,16.6
2018-05-12T06:28:34.751Z,16.56
2018-05-12T06:29:34.744Z,16.65
2018-05-12T06:30:34.734Z,16.68
2018-05-12T06:31:34.712Z,16.71
2018-05-12T06:32:34.970Z,16.81
2018-05-12T06:33:34.754Z,16.67
2018-05-12T06:34:34.688Z,16.78
2018-05-12T06:35:34.936Z,16.89
2018-05-12T06:36:34.659Z,16.85
2018-05-12T06:37:34.647Z,16.86
2018-05-12T06:38:34.633Z,16.98
2018-05-12T06:39:34.887Z,16.96
2018-05-12T06:40:34.612Z,17.03
2018-05-12T06:41:34.870Z,17.06
2018-05-12T06:42:34.863Z,17.08
2018-05-12T06:43:34.843Z,17.13
2018-05-12T06:44:34.308Z,17.13
2018-05-12T06:45:34.822Z,17.17
2018-05-12T06:46:34.563Z,17.2
2018-05-12T06:47:34.271Z,17.2
2018-05-12T06:48:34.790Z,17.17
2018-05-12T06:49:34.510Z,17.25
2018-05-12T06:50:34.763Z,17.26
2018-05-12T06:51:34.757Z,17.32
2018-05-12T06:52:34.475Z,17.38
2018-05-12T06:53:34.465Z,17.35
2018-05-12T06:54:34.452Z,17.5
2018-05-12T06:55:34.439Z,17.53
2018-05-12T06:56:34.694Z,17.51
2018-05-12T06:57:34.688Z,17.48
2018-05-12T06:58:34.405Z,17.57
2018-05-12T06:59:34.664Z,17.5
2018-05-12T07:00:34.686Z,17.55
2018-05-12T07:01:34.779Z,17.63
2018-05-12T07:02:34.639Z,17.67
2018-05-12T07:03:34.089Z,17.73
2018-05-12T07:04:34.398Z,17.71
2018-05-12T07:05:34.344Z,17.79
2018-05-12T07:06:34.330Z,17.84
2018-05-12T07:07:34.580Z,17.85
2018-05-12T07:08:34.595Z,17.82
2018-05-12T07:09:34.297Z,17.88
2018-05-12T07:10:34.011Z,18
2018-05-12T07:11:34.010Z,17.99
2018-05-12T07:12:34.523Z,17.91
2018-05-12T07:13:34.515Z,17.92
2018-05-12T07:14:34.245Z,18.03
2018-05-12T07:15:34.498Z,18.07
2018-05-12T07:16:34.216Z,18.06
2018-05-12T07:17:34.220Z,18.06
2018-05-12T07:18:34.195Z,18.13
2018-05-12T07:19:34.231Z,18.17
2018-05-12T07:20:34.171Z,18.25
2018-05-12T07:21:34.168Z,18.21
2018-05-12T07:22:34.149Z,18.28
2018-05-12T07:23:34.141Z,18.28
2018-05-12T07:24:34.129Z,18.28
2018-05-12T07:25:33.865Z,18.36
2018-05-12T07:26:34.176Z,18.4
2018-05-12T07:27:34.123Z,18.87
2018-05-12T07:28:34.092Z,19.8
2018-05-12T07:29:33.925Z,20.84
2018-05-12T07:30:34.073Z,21.67
2018-05-12T07:31:34.068Z,22.54
2018-05-12T07:32:34.069Z,23.39
2018-05-12T07:33:34.087Z,24
2018-05-12T07:34:34.040Z,24.54
2018-05-12T07:35:34.313Z,25.2
2018-05-12T07:36:34.290Z,25.77
2018-05-12T07:37:34.288Z,26.31
2018-05-12T07:38:34.012Z,26.87
2018-05-12T07:39:33.748Z,27.2
2018-05-12T07:40:34.012Z,27.43
2018-05-12T07:41:33.740Z,27.59
2018-05-12T07:42:34.255Z,27.74
2018-05-12T07:43:34.282Z,28.14
2018-05-12T07:44:33.980Z,28.33
2018-05-12T07:45:33.759Z,28.4
2018-05-12T07:46:34.239Z,28.65
2018-05-12T07:47:33.985Z,28.73
2018-05-12T07:48:34.226Z,28.95
2018-05-12T07:49:34.070Z,29.2
2018-05-12T07:50:33.970Z,29.33
2018-05-12T07:51:34.162Z,29.35
2018-05-12T07:52:33.683Z,29.41
2018-05-12T07:53:34.214Z,29.6
2018-05-12T07:54:34.148Z,29.52
2018-05-12T07:55:33.951Z,29.4
2018-05-12T07:56:34.224Z,29.45
2018-05-12T07:57:34.208Z,29.47
2018-05-12T07:58:33.942Z,29.52
2018-05-12T07:59:33.945Z,29.71
2018-05-12T08:00:33.937Z,29.77
2018-05-12T08:01:33.932Z,29.92
2018-05-12T08:02:34.207Z,29.86
2018-05-12T08:03:34.040Z,29.93
2018-05-12T08:04:33.935Z,30
2018-05-12T08:05:33.938Z,30.15
2018-05-12T08:06:33.934Z,30.29
2018-05-12T08:07:34.208Z,30.27
2018-05-12T08:08:34.135Z,30.34
2018-05-12T08:09:33.664Z,30.53
2018-05-12T08:10:33.923Z,30.65
2018-05-12T08:11:34.188Z,31.02
2018-05-12T08:12:33.672Z,31.09
2018-05-12T08:13:33.925Z,31.24
2018-05-12T08:14:33.671Z,31.09
2018-05-12T08:15:34.199Z,31.01
2018-05-12T08:16:33.924Z,31.09
2018-05-12T08:17:34.210Z,31.06
2018-05-12T08:18:33.930Z,31.28
2018-05-12T08:19:33.671Z,31.49
2018-05-12T08:20:33.952Z,31.57
2018-05-12T08:21:34.213Z,31.65
2018-05-12T08:22:33.945Z,32.03
2018-05-12T08:23:34.196Z,31.85
2018-05-12T08:24:34.195Z,31.88
2018-05-12T08:25:34.203Z,31.61
2018-05-12T08:26:33.950Z,31.02
2018-05-12T08:27:33.686Z,30.54
2018-05-12T08:28:34.233Z,30.14
2018-05-12T08:29:33.948Z,29.82
2018-05-12T08:30:33.930Z,29.5
2018-05-12T08:31:34.441Z,29.04
2018-05-12T08:32:34.197Z,28.7
2018-05-12T08:33:33.668Z,28.36
2018-05-12T08:34:33.670Z,27.8
2018-05-12T08:35:33.935Z,27.59
2018-05-12T08:36:34.200Z,27.53
2018-05-12T08:37:33.929Z,27.31
2018-05-12T08:38:33.925Z,27.09
2018-05-12T08:39:34.199Z,26.72
2018-05-12T08:40:34.031Z,26.44
2018-05-12T08:41:34.204Z,26.27
2018-05-12T08:42:33.671Z,26.09
2018-05-12T08:43:33.664Z,25.97
2018-05-12T08:44:34.179Z,25.98
2018-05-12T08:45:33.918Z,25.84
2018-05-12T08:46:34.177Z,25.75
2018-05-12T08:47:33.926Z,25.56
2018-05-12T08:48:33.650Z,25.25
2018-05-12T08:49:34.177Z,24.97
2018-05-12T08:50:33.907Z,24.64
2018-05-12T08:51:34.184Z,24.56
2018-05-12T08:52:34.167Z,24.34
2018-05-12T08:53:34.181Z,24.07
2018-05-12T08:54:34.155Z,24
2018-05-12T08:55:33.891Z,23.94
2018-05-12T08:56:33.891Z,23.94
2018-05-12T08:57:33.613Z,23.94
2018-05-12T08:58:33.880Z,23.95
2018-05-12T08:59:33.605Z,23.9
2018-05-12T09:00:34.135Z,23.7
2018-05-12T09:01:34.236Z,23.79
2018-05-12T09:02:34.142Z,23.68
2018-05-12T09:03:33.853Z,23.57
2018-05-12T09:04:34.120Z,23.52
2018-05-12T09:05:33.842Z,23.5
2018-05-12T09:06:33.850Z,23.35
2018-05-12T09:07:33.835Z,23.5
2018-05-12T09:08:33.826Z,23.46
2018-05-12T09:09:33.828Z,23.53
2018-05-12T09:10:33.551Z,23.53
2018-05-12T09:11:33.812Z,23.46
2018-05-12T09:12:34.275Z,23.45
2018-05-12T09:13:33.535Z,23.29
2018-05-12T09:14:33.793Z,23.38
2018-05-12T09:15:34.064Z,23.31
2018-05-12T09:16:33.789Z,23.34
2018-05-12T09:17:33.548Z,23.39
2018-05-12T09:18:34.060Z,23.39
2018-05-12T09:19:34.061Z,23.43
2018-05-12T09:20:33.508Z,23.39
2018-05-12T09:21:33.757Z,23.42
2018-05-12T09:22:33.768Z,23.38
2018-05-12T09:23:33.501Z,23.34
2018-05-12T09:24:33.768Z,23.19
2018-05-12T09:25:33.912Z,23.12
2018-05-12T09:26:34.029Z,23.08
2018-05-12T09:27:33.723Z,23.17
2018-05-12T09:28:33.991Z,23.17
2018-05-12T09:29:33.457Z,23.12
2018-05-12T09:30:33.982Z,23.22
2018-05-12T09:31:33.725Z,23.26
2018-05-12T09:32:33.723Z,23.19
2018-05-12T09:33:33.702Z,23.27
2018-05-12T09:34:33.724Z,23.26
2018-05-12T09:35:33.961Z,23.24
2018-05-12T09:36:33.959Z,23.26
2018-05-12T09:37:33.944Z,23.26
2018-05-12T09:38:33.945Z,23.29
2018-05-12T09:39:33.476Z,23.29
2018-05-12T09:40:33.932Z,23.46
2018-05-12T09:41:33.654Z,23.38
2018-05-12T09:42:34.322Z,23.35
2018-05-12T09:43:33.639Z,23.29
2018-05-12T09:44:33.630Z,23.29
2018-05-12T09:45:33.620Z,23.29
2018-05-12T09:46:33.621Z,23.17
2018-05-12T09:47:33.617Z,23.15
2018-05-12T09:48:33.602Z,23.02
2018-05-12T09:49:33.597Z,23.01
2018-05-12T09:50:33.859Z,23.08
2018-05-12T09:51:33.586Z,23.15
2018-05-12T09:52:33.779Z,23.15
2018-05-12T09:53:33.840Z,23.29
2018-05-12T09:54:33.868Z,23.31
2018-05-12T09:55:33.298Z,23.43
2018-05-12T09:56:33.564Z,23.38
2018-05-12T09:57:33.850Z,23.46
2018-05-12T09:58:33.814Z,23.52
2018-05-12T09:59:33.726Z,23.64
2018-05-12T10:00:33.534Z,23.62
2018-05-12T10:01:33.793Z,23.64
2018-05-12T10:02:33.524Z,23.68
2018-05-12T10:03:34.070Z,23.76
2018-05-12T10:04:33.504Z,23.8
2018-05-12T10:05:33.501Z,23.89
2018-05-12T10:06:33.760Z,23.94
2018-05-12T10:07:33.492Z,24.01
2018-05-12T10:08:33.633Z,24.02
2018-05-12T10:09:33.862Z,24.02
2018-05-12T10:10:33.477Z,24.13
2018-05-12T10:11:33.206Z,24.2
2018-05-12T10:12:33.741Z,24.17
2018-05-12T10:13:33.458Z,24.24
2018-05-12T10:14:33.719Z,24.34
2018-05-12T10:15:33.616Z,24.16
2018-05-12T10:16:33.447Z,24.05
2018-05-12T10:17:33.442Z,24.19
2018-05-12T10:18:33.438Z,24.16
2018-05-12T10:19:33.904Z,24.14
2018-05-12T10:20:33.709Z,24.19
2018-05-12T10:21:33.736Z,24.32
2018-05-12T10:22:33.677Z,24.44
2018-05-12T10:23:33.409Z,24.5
2018-05-12T10:24:33.406Z,24.77
2018-05-12T10:25:33.409Z,25.02
2018-05-12T10:26:33.607Z,25.35
2018-05-12T10:27:33.402Z,25.56
2018-05-12T10:28:33.661Z,26.01
2018-05-12T10:29:33.664Z,26.32
2018-05-12T10:30:33.125Z,26.64
2018-05-12T10:31:33.390Z,27.01
2018-05-12T10:32:33.656Z,27.28
2018-05-12T10:33:33.387Z,27.62
2018-05-12T10:34:33.392Z,27.7
2018-05-12T10:35:33.119Z,27.88
2018-05-12T10:36:33.386Z,28.07
2018-05-12T10:37:33.385Z,28.33
2018-05-12T10:38:33.394Z,28.56
2018-05-12T10:39:33.123Z,28.82
2018-05-12T10:40:33.395Z,29.13
2018-05-12T10:41:33.400Z,29.2
2018-05-12T10:42:33.453Z,29.47
2018-05-12T10:43:33.392Z,29.22
2018-05-12T10:44:33.406Z,29.15
2018-05-12T10:45:33.410Z,29.38
2018-05-12T10:46:33.409Z,29.63
2018-05-12T10:47:33.668Z,29.84
2018-05-12T10:48:33.673Z,29.81
2018-05-12T10:49:33.675Z,29.77
2018-05-12T10:50:33.427Z,29.89
2018-05-12T10:51:33.148Z,30.11
2018-05-12T10:52:33.419Z,30.3
2018-05-12T10:53:33.151Z,30.07
2018-05-12T10:54:33.422Z,30.26
2018-05-12T10:55:33.436Z,30.38
2018-05-12T10:56:33.693Z,30.57
2018-05-12T10:57:33.697Z,30.67
2018-05-12T10:58:33.167Z,30.86
2018-05-12T10:59:33.438Z,30.98
2018-05-12T11:00:33.712Z,30.83
2018-05-12T11:01:33.528Z,30.76
2018-05-12T11:02:33.518Z,29.96
2018-05-12T11:03:33.723Z,29.92
2018-05-12T11:04:33.192Z,29.99
2018-05-12T11:05:33.193Z,30
2018-05-12T11:06:33.747Z,30.21
2018-05-12T11:07:33.483Z,30.19
2018-05-12T11:08:33.469Z,30.33
2018-05-12T11:09:33.621Z,30.21
2018-05-12T11:10:33.221Z,30.19
2018-05-12T11:11:33.752Z,30.33
2018-05-12T11:12:33.830Z,30.65
2018-05-12T11:13:33.236Z,30.74
2018-05-12T11:14:33.505Z,30.56
2018-05-12T11:15:33.503Z,30.46
2018-05-12T11:16:33.838Z,30.47
2018-05-12T11:17:33.520Z,30.49
2018-05-12T11:18:33.525Z,30.68
2018-05-12T11:19:33.531Z,30.69
2018-05-12T11:20:33.261Z,30.57
2018-05-12T11:21:33.570Z,30.62
2018-05-12T11:22:33.536Z,30.86
2018-05-12T11:23:33.549Z,31.08
2018-05-12T11:24:33.813Z,31.23
2018-05-12T11:25:33.280Z,31.28
2018-05-12T11:26:33.583Z,31.6
2018-05-12T11:27:33.820Z,31.7
2018-05-12T11:28:33.293Z,31.87
2018-05-12T11:29:33.834Z,32
2018-05-12T11:30:33.596Z,32.25
2018-05-12T11:31:33.311Z,32.43
2018-05-12T11:32:33.585Z,32.33
2018-05-12T11:33:33.859Z,32.4
2018-05-12T11:34:33.855Z,32.2
2018-05-12T11:35:33.599Z,31.62
2018-05-12T11:36:33.878Z,31.17
2018-05-12T11:37:33.609Z,31.01
2018-05-12T11:38:33.885Z,31.2
2018-05-12T11:39:33.704Z,31.43
2018-05-12T11:40:33.888Z,31.54
2018-05-12T11:41:33.902Z,31.79
2018-05-12T11:42:33.373Z,31.88
2018-05-12T11:43:33.649Z,31.88
2018-05-12T11:44:33.772Z,31.88
2018-05-12T11:45:33.928Z,31.95
2018-05-12T11:46:33.668Z,32.18
2018-05-12T11:47:33.668Z,31.96
2018-05-12T11:48:33.945Z,32.11
2018-05-12T11:49:33.671Z,32.27
2018-05-12T11:50:33.955Z,31.91
2018-05-12T11:51:33.868Z,31.65
2018-05-12T11:52:33.697Z,31.57
2018-05-12T11:53:33.434Z,31.57
2018-05-12T11:54:33.720Z,31.54
2018-05-12T11:55:33.720Z,31.48
2018-05-12T11:56:33.721Z,31.48
2018-05-12T11:57:33.729Z,31.58
2018-05-12T11:58:34.075Z,31.5
2018-05-12T11:59:33.737Z,31.46
2018-05-12T12:00:33.739Z,31.48
2018-05-12T12:01:34.007Z,31.09
2018-05-12T12:02:34.116Z,31.06
2018-05-12T12:03:34.016Z,31.04
2018-05-12T12:04:34.023Z,30.75
2018-05-12T12:05:33.760Z,30.69
2018-05-12T12:06:34.024Z,30.72
2018-05-12T12:07:34.043Z,30.64
2018-05-12T12:08:34.045Z,30.45
2018-05-12T12:09:33.781Z,30.33
2018-05-12T12:10:33.786Z,30.15
2018-05-12T12:11:34.052Z,30.16
2018-05-12T12:12:33.795Z,30.19
2018-05-12T12:13:33.811Z,30.16
2018-05-12T12:14:33.800Z,30.21
2018-05-12T12:15:33.814Z,30.29
2018-05-12T12:16:34.185Z,30.56
2018-05-12T12:17:33.816Z,30.53
2018-05-12T12:18:34.087Z,30.71
2018-05-12T12:19:33.823Z,30.83
2018-05-12T12:20:33.831Z,30.45
2018-05-12T12:21:34.096Z,30.11
2018-05-12T12:22:33.579Z,30.3
2018-05-12T12:23:33.849Z,30.54
2018-05-12T12:24:34.107Z,30.68
2018-05-12T12:25:33.851Z,30.75
2018-05-12T12:26:33.854Z,30.71
2018-05-12T12:27:33.587Z,30.94
2018-05-12T12:28:33.865Z,30.99
2018-05-12T12:29:33.593Z,31.2
2018-05-12T12:30:34.128Z,31.33
2018-05-12T12:31:33.613Z,31.49
2018-05-12T12:32:33.870Z,31.57
2018-05-12T12:33:34.139Z,31.58
2018-05-12T12:34:34.146Z,31.58
2018-05-12T12:35:33.889Z,31.49
2018-05-12T12:36:33.885Z,31.48
2018-05-12T12:37:33.895Z,31.48
2018-05-12T12:38:34.177Z,31.46
2018-05-12T12:39:34.166Z,31.46
2018-05-12T12:40:33.638Z,31.42
2018-05-12T12:41:33.647Z,31.64
2018-05-12T12:42:33.907Z,31.82
2018-05-12T12:43:33.655Z,31.77
2018-05-12T12:44:33.655Z,31.65
2018-05-12T12:45:33.928Z,31.76
2018-05-12T12:46:33.934Z,32.07
2018-05-12T12:47:34.203Z,32.13
2018-05-12T12:48:34.205Z,32.37
2018-05-12T12:49:33.940Z,32.57
2018-05-12T12:50:33.947Z,32.84
2018-05-12T12:51:34.215Z,32.7
2018-05-12T12:52:34.222Z,32.74
2018-05-12T12:53:33.960Z,32.71
2018-05-12T12:54:34.228Z,32.39
2018-05-12T12:55:34.238Z,32.05